createdAt,value
2023-01-08T00:29:03.455Z,968.8
2023-01-08T00:59:07.000Z,968.3
2023-01-08T01:29:12.493Z,968.5
2023-01-08T01:59:16.480Z,968.2
2023-01-08T02:29:19.445Z,967.6
2023-01-08T02:59:21.454Z,967.2
2023-01-08T03:29:25.445Z,966.9
2023-01-08T03:59:30.562Z,966.9
2023-01-08T04:29:32.000Z,967.1
2023-01-08T04:59:34.363Z,967.2
2023-01-08T05:29:38.000Z,967.2
2023-01-08T05:59:39.904Z,966.7
2023-01-08T06:29:42.878Z,966.8
2023-01-08T06:59:51.779Z,966.8
2023-01-08T07:29:52.825Z,966.7
2023-01-08T07:59:55.000Z,966.7
2023-01-08T08:29:55.875Z,966.5
2023-01-08T08:59:57.794Z,966.2
2023-01-08T09:30:00.720Z,966.3
2023-01-08T10:00:03.723Z,966.4
2023-01-08T10:30:04.707Z,966.3
2023-01-08T11:00:05.776Z,965.8
2023-01-08T11:30:06.706Z,965.3
2023-01-08T12:00:12.738Z,964.8
2023-01-08T12:30:22.753Z,964.4
2023-01-08T13:00:26.736Z,964.4
2023-01-08T13:30:27.679Z,964
2023-01-08T14:00:29.630Z,963.3
2023-01-08T14:30:35.610Z,963.2
2023-01-08T15:00:37.615Z,962.9
2023-01-08T15:30:40.718Z,962.3
2023-01-08T16:00:45.611Z,962.1
2023-01-08T16:30:46.571Z,961.7
2023-01-08T17:00:48.557Z,961.4
2023-01-08T17:30:52.538Z,961
2023-01-08T18:01:01.106Z,960.7
2023-01-08T18:31:05.993Z,960.5
2023-01-08T19:01:08.077Z,960
2023-01-08T19:31:12.976Z,959.8
2023-01-08T20:01:15.006Z,959.5
2023-01-08T20:31:16.983Z,959.1
2023-01-08T21:01:25.057Z,958.5
2023-01-08T21:31:31.976Z,958.4
2023-01-08T22:01:36.959Z,958.1
2023-01-08T22:31:39.021Z,957.9
2023-01-08T23:01:43.135Z,957.7
2023-01-08T23:31:46.940Z,957.3
